sensor_id;sensor_type;location;lat;lon;timestamp;P1;durP1;ratioP1;P2;durP2;ratioP2
65706;SDS011;52423;43.512;5.220;2022-09-17T00:01:13;4.78;;;2.10;;
65706;SDS011;52423;43.512;5.220;2022-09-17T00:03:41;3.65;;;1.90;;
65706;SDS011;52423;43.512;5.220;2022-09-17T00:06:08;3.55;;;2.38;;
65706;SDS011;52423;43.512;5.220;2022-09-17T00:08:37;2.90;;;2.00;;
65706;SDS011;52423;43.512;5.220;2022-09-17T00:11:14;5.78;;;1.92;;
65706;SDS011;52423;43.512;5.220;2022-09-17T00:13:45;7.37;;;2.43;;
65706;SDS011;52423;43.512;5.220;2022-09-17T00:16:11;3.28;;;2.10;;
65706;SDS011;52423;43.512;5.220;2022-09-17T00:18:37;6.28;;;2.22;;
65706;SDS011;52423;43.512;5.220;2022-09-17T00:21:06;3.00;;;2.10;;
65706;SDS011;52423;43.512;5.220;2022-09-17T00:23:39;6.72;;;2.20;;
65706;SDS011;52423;43.512;5.220;2022-09-17T00:26:05;9.35;;;2.10;;
65706;SDS011;52423;43.512;5.220;2022-09-17T00:28:31;2.88;;;2.40;;
65706;SDS011;52423;43.512;5.220;2022-09-17T00:30:57;4.60;;;2.42;;
65706;SDS011;52423;43.512;5.220;2022-09-17T00:33:22;8.63;;;2.10;;
65706;SDS011;52423;43.512;5.220;2022-09-17T00:35:57;5.22;;;2.33;;
65706;SDS011;52423;43.512;5.220;2022-09-17T00:38:24;2.92;;;2.08;;
65706;SDS011;52423;43.512;5.220;2022-09-17T00:40:50;2.17;;;1.67;;
65706;SDS011;52423;43.512;5.220;2022-09-17T00:43:39;3.90;;;2.05;;
65706;SDS011;52423;43.512;5.220;2022-09-17T00:48:52;4.63;;;1.80;;
65706;SDS011;52423;43.512;5.220;2022-09-17T00:51:21;2.95;;;1.70;;
65706;SDS011;52423;43.512;5.220;2022-09-17T00:53:52;6.32;;;2.35;;
65706;SDS011;52423;43.512;5.220;2022-09-17T00:56:26;3.20;;;1.90;;
65706;SDS011;52423;43.512;5.220;2022-09-17T00:58:53;7.65;;;2.05;;
65706;SDS011;52423;43.512;5.220;2022-09-17T01:01:20;2.50;;;1.88;;
65706;SDS011;52423;43.512;5.220;2022-09-17T01:03:45;2.47;;;2.28;;
65706;SDS011;52423;43.512;5.220;2022-09-17T01:09:16;3.42;;;1.92;;
65706;SDS011;52423;43.512;5.220;2022-09-17T01:17:42;7.22;;;1.90;;
65706;SDS011;52423;43.512;5.220;2022-09-17T01:20:34;7.72;;;1.90;;
65706;SDS011;52423;43.512;5.220;2022-09-17T01:39:22;3.33;;;2.08;;
65706;SDS011;52423;43.512;5.220;2022-09-17T01:42:08;5.25;;;2.00;;
65706;SDS011;52423;43.512;5.220;2022-09-17T01:44:44;3.72;;;1.85;;
65706;SDS011;52423;43.512;5.220;2022-09-17T01:47:18;5.07;;;2.15;;
65706;SDS011;52423;43.512;5.220;2022-09-17T01:49:47;3.28;;;2.03;;
65706;SDS011;52423;43.512;5.220;2022-09-17T01:52:15;5.57;;;1.90;;
65706;SDS011;52423;43.512;5.220;2022-09-17T01:54:44;2.78;;;1.88;;
65706;SDS011;52423;43.512;5.220;2022-09-17T02:00:21;4.90;;;1.75;;
65706;SDS011;52423;43.512;5.220;2022-09-17T02:02:49;3.55;;;1.98;;
65706;SDS011;52423;43.512;5.220;2022-09-17T02:08:27;2.88;;;1.95;;
65706;SDS011;52423;43.512;5.220;2022-09-17T02:10:55;4.50;;;1.67;;
65706;SDS011;52423;43.512;5.220;2022-09-17T02:13:29;4.30;;;1.98;;
65706;SDS011;52423;43.512;5.220;2022-09-17T02:16:07;2.20;;;1.75;;
65706;SDS011;52423;43.512;5.220;2022-09-17T02:18:49;4.35;;;2.03;;
65706;SDS011;52423;43.512;5.220;2022-09-17T02:21:42;7.78;;;1.80;;
65706;SDS011;52423;43.512;5.220;2022-09-17T02:24:24;3.83;;;1.67;;
65706;SDS011;52423;43.512;5.220;2022-09-17T02:27:00;3.00;;;1.80;;
65706;SDS011;52423;43.512;5.220;2022-09-17T02:29:30;2.80;;;1.50;;
65706;SDS011;52423;43.512;5.220;2022-09-17T02:31:58;4.28;;;1.63;;
65706;SDS011;52423;43.512;5.220;2022-09-17T02:34:25;2.47;;;1.48;;
65706;SDS011;52423;43.512;5.220;2022-09-17T02:36:53;3.58;;;1.77;;
65706;SDS011;52423;43.512;5.220;2022-09-17T02:39:19;2.63;;;1.60;;
65706;SDS011;52423;43.512;5.220;2022-09-17T02:41:48;5.72;;;1.55;;
65706;SDS011;52423;43.512;5.220;2022-09-17T02:44:23;1.80;;;1.42;;
65706;SDS011;52423;43.512;5.220;2022-09-17T02:47:03;3.70;;;1.80;;
65706;SDS011;52423;43.512;5.220;2022-09-17T02:52:32;12.57;;;1.63;;
65706;SDS011;52423;43.512;5.220;2022-09-17T03:00:21;5.20;;;1.58;;
65706;SDS011;52423;43.512;5.220;2022-09-17T03:03:05;3.25;;;1.40;;
65706;SDS011;52423;43.512;5.220;2022-09-17T03:05:32;1.98;;;1.40;;
65706;SDS011;52423;43.512;5.220;2022-09-17T03:08:00;1.70;;;1.50;;
65706;SDS011;52423;43.512;5.220;2022-09-17T03:10:26;5.80;;;1.33;;
65706;SDS011;52423;43.512;5.220;2022-09-17T03:12:54;8.70;;;1.70;;
65706;SDS011;52423;43.512;5.220;2022-09-17T03:15:20;2.50;;;1.88;;
65706;SDS011;52423;43.512;5.220;2022-09-17T03:17:45;3.38;;;1.50;;
65706;SDS011;52423;43.512;5.220;2022-09-17T03:20:11;2.22;;;1.40;;
65706;SDS011;52423;43.512;5.220;2022-09-17T03:22:36;1.98;;;1.60;;
65706;SDS011;52423;43.512;5.220;2022-09-17T03:25:02;2.83;;;1.70;;
65706;SDS011;52423;43.512;5.220;2022-09-17T03:27:28;3.33;;;1.55;;
65706;SDS011;52423;43.512;5.220;2022-09-17T03:29:53;2.53;;;1.42;;
65706;SDS011;52423;43.512;5.220;2022-09-17T03:32:19;3.25;;;1.40;;
65706;SDS011;52423;43.512;5.220;2022-09-17T03:34:44;3.03;;;1.38;;
65706;SDS011;52423;43.512;5.220;2022-09-17T03:37:11;3.72;;;1.50;;
65706;SDS011;52423;43.512;5.220;2022-09-17T03:39:37;3.30;;;1.80;;
65706;SDS011;52423;43.512;5.220;2022-09-17T03:42:03;1.38;;;1.20;;
65706;SDS011;52423;43.512;5.220;2022-09-17T03:44:28;2.63;;;1.70;;
65706;SDS011;52423;43.512;5.220;2022-09-17T03:46:54;3.97;;;1.80;;
65706;SDS011;52423;43.512;5.220;2022-09-17T03:49:20;2.70;;;1.50;;
65706;SDS011;52423;43.512;5.220;2022-09-17T03:51:48;2.50;;;1.40;;
65706;SDS011;52423;43.512;5.220;2022-09-17T03:54:13;4.63;;;1.50;;
65706;SDS011;52423;43.512;5.220;2022-09-17T03:56:39;6.93;;;2.25;;
65706;SDS011;52423;43.512;5.220;2022-09-17T03:59:04;4.78;;;1.40;;
65706;SDS011;52423;43.512;5.220;2022-09-17T04:01:30;1.90;;;1.60;;
65706;SDS011;52423;43.512;5.220;2022-09-17T04:03:56;8.00;;;1.23;;
65706;SDS011;52423;43.512;5.220;2022-09-17T04:06:21;4.95;;;1.60;;
65706;SDS011;52423;43.512;5.220;2022-09-17T04:08:47;3.83;;;1.50;;
65706;SDS011;52423;43.512;5.220;2022-09-17T04:11:12;5.78;;;1.80;;
65706;SDS011;52423;43.512;5.220;2022-09-17T04:13:38;1.85;;;1.40;;
65706;SDS011;52423;43.512;5.220;2022-09-17T04:16:04;2.30;;;1.15;;
65706;SDS011;52423;43.512;5.220;2022-09-17T04:18:30;1.95;;;1.48;;
65706;SDS011;52423;43.512;5.220;2022-09-17T04:20:55;2.67;;;1.45;;
65706;SDS011;52423;43.512;5.220;2022-09-17T04:23:21;1.98;;;1.40;;
65706;SDS011;52423;43.512;5.220;2022-09-17T04:25:47;4.00;;;1.50;;
65706;SDS011;52423;43.512;5.220;2022-09-17T04:28:13;5.68;;;1.55;;
65706;SDS011;52423;43.512;5.220;2022-09-17T04:30:39;1.50;;;1.40;;
65706;SDS011;52423;43.512;5.220;2022-09-17T04:33:07;4.45;;;1.63;;
65706;SDS011;52423;43.512;5.220;2022-09-17T04:35:33;6.35;;;1.58;;
65706;SDS011;52423;43.512;5.220;2022-09-17T04:37:59;4.05;;;1.30;;
65706;SDS011;52423;43.512;5.220;2022-09-17T04:40:25;5.10;;;1.80;;
65706;SDS011;52423;43.512;5.220;2022-09-17T04:42:52;2.85;;;1.55;;
65706;SDS011;52423;43.512;5.220;2022-09-17T04:45:19;3.65;;;1.80;;
65706;SDS011;52423;43.512;5.220;2022-09-17T04:47:45;2.10;;;1.08;;
65706;SDS011;52423;43.512;5.220;2022-09-17T04:50:11;1.80;;;1.13;;
65706;SDS011;52423;43.512;5.220;2022-09-17T04:52:40;5.32;;;1.30;;
65706;SDS011;52423;43.512;5.220;2022-09-17T04:55:06;1.88;;;1.30;;
65706;SDS011;52423;43.512;5.220;2022-09-17T04:57:32;2.33;;;1.30;;
65706;SDS011;52423;43.512;5.220;2022-09-17T04:59:58;2.08;;;1.23;;
65706;SDS011;52423;43.512;5.220;2022-09-17T05:02:23;2.15;;;1.65;;
65706;SDS011;52423;43.512;5.220;2022-09-17T05:04:49;3.70;;;2.38;;
65706;SDS011;52423;43.512;5.220;2022-09-17T05:07:14;2.85;;;1.42;;
65706;SDS011;52423;43.512;5.220;2022-09-17T05:09:40;1.63;;;1.23;;
65706;SDS011;52423;43.512;5.220;2022-09-17T05:12:06;2.00;;;1.40;;
65706;SDS011;52423;43.512;5.220;2022-09-17T05:14:32;4.40;;;1.60;;
65706;SDS011;52423;43.512;5.220;2022-09-17T05:16:57;1.92;;;1.17;;
65706;SDS011;52423;43.512;5.220;2022-09-17T05:19:23;2.88;;;1.70;;
65706;SDS011;52423;43.512;5.220;2022-09-17T05:21:48;7.95;;;1.75;;
65706;SDS011;52423;43.512;5.220;2022-09-17T05:24:14;6.72;;;1.70;;
65706;SDS011;52423;43.512;5.220;2022-09-17T05:26:40;6.28;;;1.40;;
65706;SDS011;52423;43.512;5.220;2022-09-17T05:29:05;3.40;;;1.38;;
65706;SDS011;52423;43.512;5.220;2022-09-17T05:31:31;4.00;;;1.88;;
65706;SDS011;52423;43.512;5.220;2022-09-17T05:33:57;3.30;;;1.95;;
65706;SDS011;52423;43.512;5.220;2022-09-17T05:36:23;4.30;;;1.70;;
65706;SDS011;52423;43.512;5.220;2022-09-17T05:38:48;5.47;;;1.88;;
65706;SDS011;52423;43.512;5.220;2022-09-17T05:41:14;2.67;;;1.60;;
65706;SDS011;52423;43.512;5.220;2022-09-17T05:43:41;1.73;;;1.30;;
65706;SDS011;52423;43.512;5.220;2022-09-17T05:46:07;5.75;;;1.83;;
65706;SDS011;52423;43.512;5.220;2022-09-17T05:48:33;1.85;;;1.20;;
65706;SDS011;52423;43.512;5.220;2022-09-17T05:50:59;1.50;;;1.20;;
65706;SDS011;52423;43.512;5.220;2022-09-17T05:53:25;2.53;;;1.20;;
65706;SDS011;52423;43.512;5.220;2022-09-17T05:55:54;3.38;;;1.42;;
65706;SDS011;52423;43.512;5.220;2022-09-17T05:58:21;5.60;;;1.40;;
65706;SDS011;52423;43.512;5.220;2022-09-17T06:00:46;4.80;;;1.40;;
65706;SDS011;52423;43.512;5.220;2022-09-17T06:03:13;1.65;;;1.40;;
65706;SDS011;52423;43.512;5.220;2022-09-17T06:05:41;8.48;;;1.58;;
65706;SDS011;52423;43.512;5.220;2022-09-17T06:08:08;4.72;;;1.20;;
65706;SDS011;52423;43.512;5.220;2022-09-17T06:10:37;4.30;;;1.42;;
65706;SDS011;52423;43.512;5.220;2022-09-17T06:13:03;6.28;;;1.25;;
65706;SDS011;52423;43.512;5.220;2022-09-17T06:15:28;3.03;;;1.70;;
65706;SDS011;52423;43.512;5.220;2022-09-17T06:17:54;1.42;;;1.30;;
65706;SDS011;52423;43.512;5.220;2022-09-17T06:20:21;2.38;;;1.40;;
65706;SDS011;52423;43.512;5.220;2022-09-17T06:22:47;1.58;;;1.00;;
65706;SDS011;52423;43.512;5.220;2022-09-17T06:25:12;4.60;;;1.58;;
65706;SDS011;52423;43.512;5.220;2022-09-17T06:27:38;2.50;;;1.45;;
65706;SDS011;52423;43.512;5.220;2022-09-17T06:30:04;10.77;;;1.23;;
65706;SDS011;52423;43.512;5.220;2022-09-17T06:32:31;2.33;;;1.40;;
65706;SDS011;52423;43.512;5.220;2022-09-17T06:34:56;5.20;;;1.52;;
65706;SDS011;52423;43.512;5.220;2022-09-17T06:37:29;1.98;;;1.15;;
65706;SDS011;52423;43.512;5.220;2022-09-17T06:39:56;7.47;;;1.40;;
65706;SDS011;52423;43.512;5.220;2022-09-17T06:42:24;1.90;;;1.08;;
65706;SDS011;52423;43.512;5.220;2022-09-17T06:44:50;4.32;;;1.60;;
65706;SDS011;52423;43.512;5.220;2022-09-17T06:47:16;0.82;;;0.82;;
65706;SDS011;52423;43.512;5.220;2022-09-17T06:49:42;5.80;;;1.00;;
65706;SDS011;52423;43.512;5.220;2022-09-17T06:52:07;3.17;;;0.77;;
65706;SDS011;52423;43.512;5.220;2022-09-17T06:54:33;5.40;;;1.48;;
65706;SDS011;52423;43.512;5.220;2022-09-17T06:56:59;2.80;;;1.00;;
65706;SDS011;52423;43.512;5.220;2022-09-17T06:59:24;3.65;;;1.17;;
65706;SDS011;52423;43.512;5.220;2022-09-17T07:01:50;1.60;;;1.02;;
65706;SDS011;52423;43.512;5.220;2022-09-17T07:04:16;7.88;;;1.13;;
65706;SDS011;52423;43.512;5.220;2022-09-17T07:06:43;1.52;;;0.93;;
65706;SDS011;52423;43.512;5.220;2022-09-17T07:09:09;8.27;;;1.20;;
65706;SDS011;52423;43.512;5.220;2022-09-17T07:11:36;3.25;;;1.10;;
65706;SDS011;52423;43.512;5.220;2022-09-17T07:14:02;6.70;;;1.13;;
65706;SDS011;52423;43.512;5.220;2022-09-17T07:16:28;0.80;;;0.80;;
65706;SDS011;52423;43.512;5.220;2022-09-17T07:18:57;5.07;;;1.00;;
65706;SDS011;52423;43.512;5.220;2022-09-17T07:21:22;14.30;;;0.90;;
65706;SDS011;52423;43.512;5.220;2022-09-17T07:23:49;12.63;;;1.10;;
65706;SDS011;52423;43.512;5.220;2022-09-17T07:26:15;4.10;;;1.10;;
65706;SDS011;52423;43.512;5.220;2022-09-17T07:28:41;6.25;;;1.05;;
65706;SDS011;52423;43.512;5.220;2022-09-17T07:31:08;5.05;;;1.30;;
65706;SDS011;52423;43.512;5.220;2022-09-17T07:33:34;4.72;;;1.25;;
65706;SDS011;52423;43.512;5.220;2022-09-17T07:36:03;5.88;;;1.20;;
65706;SDS011;52423;43.512;5.220;2022-09-17T07:38:30;2.55;;;0.98;;
65706;SDS011;52423;43.512;5.220;2022-09-17T07:41:04;3.63;;;0.90;;
65706;SDS011;52423;43.512;5.220;2022-09-17T07:43:33;4.78;;;1.08;;
65706;SDS011;52423;43.512;5.220;2022-09-17T07:46:00;4.00;;;0.98;;
65706;SDS011;52423;43.512;5.220;2022-09-17T07:48:28;5.28;;;1.20;;
65706;SDS011;52423;43.512;5.220;2022-09-17T07:50:55;1.67;;;0.88;;
65706;SDS011;52423;43.512;5.220;2022-09-17T07:53:24;3.22;;;1.25;;
65706;SDS011;52423;43.512;5.220;2022-09-17T07:55:55;8.38;;;1.08;;
65706;SDS011;52423;43.512;5.220;2022-09-17T07:58:31;1.98;;;0.85;;
65706;SDS011;52423;43.512;5.220;2022-09-17T08:01:00;8.18;;;1.15;;
65706;SDS011;52423;43.512;5.220;2022-09-17T08:03:27;3.28;;;0.70;;
65706;SDS011;52423;43.512;5.220;2022-09-17T08:05:53;1.63;;;0.90;;
65706;SDS011;52423;43.512;5.220;2022-09-17T08:08:19;1.75;;;1.00;;
65706;SDS011;52423;43.512;5.220;2022-09-17T08:10:44;4.50;;;1.00;;
65706;SDS011;52423;43.512;5.220;2022-09-17T08:13:10;1.52;;;0.88;;
65706;SDS011;52423;43.512;5.220;2022-09-17T08:15:35;2.50;;;1.20;;
65706;SDS011;52423;43.512;5.220;2022-09-17T08:18:01;5.90;;;1.08;;
65706;SDS011;52423;43.512;5.220;2022-09-17T08:20:26;0.90;;;0.70;;
65706;SDS011;52423;43.512;5.220;2022-09-17T08:22:59;3.67;;;0.75;;
65706;SDS011;52423;43.512;5.220;2022-09-17T08:25:25;1.00;;;0.88;;
65706;SDS011;52423;43.512;5.220;2022-09-17T08:27:54;1.70;;;0.68;;
65706;SDS011;52423;43.512;5.220;2022-09-17T08:30:21;5.68;;;0.80;;
65706;SDS011;52423;43.512;5.220;2022-09-17T08:32:47;2.72;;;0.70;;
65706;SDS011;52423;43.512;5.220;2022-09-17T08:35:12;4.03;;;0.68;;
65706;SDS011;52423;43.512;5.220;2022-09-17T08:37:38;1.50;;;0.60;;
65706;SDS011;52423;43.512;5.220;2022-09-17T08:40:03;6.05;;;0.95;;
65706;SDS011;52423;43.512;5.220;2022-09-17T08:42:31;4.65;;;0.80;;
65706;SDS011;52423;43.512;5.220;2022-09-17T08:45:04;8.25;;;0.90;;
65706;SDS011;52423;43.512;5.220;2022-09-17T08:47:36;3.28;;;0.57;;
65706;SDS011;52423;43.512;5.220;2022-09-17T08:50:03;2.78;;;0.80;;
65706;SDS011;52423;43.512;5.220;2022-09-17T08:52:51;3.55;;;1.13;;
65706;SDS011;52423;43.512;5.220;2022-09-17T09:07:21;4.90;;;0.60;;
65706;SDS011;52423;43.512;5.220;2022-09-17T09:12:30;6.30;;;1.08;;
65706;SDS011;52423;43.512;5.220;2022-09-17T09:15:04;9.63;;;0.82;;
65706;SDS011;52423;43.512;5.220;2022-09-17T09:17:40;3.20;;;0.70;;
65706;SDS011;52423;43.512;5.220;2022-09-17T09:31:30;3.03;;;0.88;;
65706;SDS011;52423;43.512;5.220;2022-09-17T09:34:19;11.90;;;1.17;;
65706;SDS011;52423;43.512;5.220;2022-09-17T09:36:45;12.00;;;1.20;;
65706;SDS011;52423;43.512;5.220;2022-09-17T09:44:11;2.28;;;0.75;;
65706;SDS011;52423;43.512;5.220;2022-09-17T09:54:58;3.72;;;0.90;;
65706;SDS011;52423;43.512;5.220;2022-09-17T09:58:02;9.48;;;1.00;;
65706;SDS011;52423;43.512;5.220;2022-09-17T10:00:28;5.20;;;1.02;;
65706;SDS011;52423;43.512;5.220;2022-09-17T10:03:37;4.43;;;1.13;;
65706;SDS011;52423;43.512;5.220;2022-09-17T10:05:55;4.10;;;0.70;;
65706;SDS011;52423;43.512;5.220;2022-09-17T10:08:23;6.32;;;0.95;;
65706;SDS011;52423;43.512;5.220;2022-09-17T10:13:33;3.92;;;1.00;;
65706;SDS011;52423;43.512;5.220;2022-09-17T10:16:14;1.52;;;0.75;;
65706;SDS011;52423;43.512;5.220;2022-09-17T10:18:47;1.45;;;0.80;;
65706;SDS011;52423;43.512;5.220;2022-09-17T10:21:20;1.77;;;0.70;;
65706;SDS011;52423;43.512;5.220;2022-09-17T10:23:47;5.57;;;0.70;;
65706;SDS011;52423;43.512;5.220;2022-09-17T10:26:24;4.65;;;0.80;;
65706;SDS011;52423;43.512;5.220;2022-09-17T10:29:01;5.68;;;1.10;;
65706;SDS011;52423;43.512;5.220;2022-09-17T10:34:23;3.28;;;0.65;;
65706;SDS011;52423;43.512;5.220;2022-09-17T10:36:51;2.08;;;0.60;;
65706;SDS011;52423;43.512;5.220;2022-09-17T10:41:58;4.85;;;0.73;;
65706;SDS011;52423;43.512;5.220;2022-09-17T10:44:27;4.88;;;0.70;;
65706;SDS011;52423;43.512;5.220;2022-09-17T10:46:55;4.78;;;0.77;;
65706;SDS011;52423;43.512;5.220;2022-09-17T10:49:35;4.93;;;0.85;;
65706;SDS011;52423;43.512;5.220;2022-09-17T10:52:12;11.10;;;0.82;;
65706;SDS011;52423;43.512;5.220;2022-09-17T10:54:55;3.83;;;0.50;;
65706;SDS011;52423;43.512;5.220;2022-09-17T11:00:22;5.50;;;1.10;;
65706;SDS011;52423;43.512;5.220;2022-09-17T11:03:08;1.83;;;0.70;;
65706;SDS011;52423;43.512;5.220;2022-09-17T11:28:00;3.72;;;0.65;;
65706;SDS011;52423;43.512;5.220;2022-09-17T11:30:32;4.57;;;0.70;;
65706;SDS011;52423;43.512;5.220;2022-09-17T11:36:31;1.50;;;0.80;;
65706;SDS011;52423;43.512;5.220;2022-09-17T11:39:13;3.72;;;0.60;;
65706;SDS011;52423;43.512;5.220;2022-09-17T11:41:44;2.70;;;0.77;;
65706;SDS011;52423;43.512;5.220;2022-09-17T11:49:53;1.65;;;0.80;;
65706;SDS011;52423;43.512;5.220;2022-09-17T11:52:26;1.52;;;0.70;;
65706;SDS011;52423;43.512;5.220;2022-09-17T11:57:42;4.38;;;0.60;;
65706;SDS011;52423;43.512;5.220;2022-09-17T12:00:15;4.68;;;0.80;;
65706;SDS011;52423;43.512;5.220;2022-09-17T12:05:43;1.73;;;0.60;;
65706;SDS011;52423;43.512;5.220;2022-09-17T12:10:50;4.00;;;0.65;;
65706;SDS011;52423;43.512;5.220;2022-09-17T12:13:27;1.38;;;0.52;;
65706;SDS011;52423;43.512;5.220;2022-09-17T12:16:14;1.70;;;0.60;;
65706;SDS011;52423;43.512;5.220;2022-09-17T12:21:46;0.40;;;0.40;;
65706;SDS011;52423;43.512;5.220;2022-09-17T12:24:25;2.35;;;0.60;;
65706;SDS011;52423;43.512;5.220;2022-09-17T12:32:53;0.40;;;0.38;;
65706;SDS011;52423;43.512;5.220;2022-09-17T12:40:35;1.05;;;0.50;;
65706;SDS011;52423;43.512;5.220;2022-09-17T12:59:35;4.95;;;0.60;;
65706;SDS011;52423;43.512;5.220;2022-09-17T13:04:46;1.75;;;0.50;;
65706;SDS011;52423;43.512;5.220;2022-09-17T13:07:22;2.35;;;0.63;;
65706;SDS011;52423;43.512;5.220;2022-09-17T13:10:02;4.72;;;0.60;;
65706;SDS011;52423;43.512;5.220;2022-09-17T13:21:07;2.30;;;0.65;;
65706;SDS011;52423;43.512;5.220;2022-09-17T13:26:07;0.98;;;0.50;;
65706;SDS011;52423;43.512;5.220;2022-09-17T13:28:35;3.50;;;1.02;;
65706;SDS011;52423;43.512;5.220;2022-09-17T13:31:20;7.35;;;0.70;;
65706;SDS011;52423;43.512;5.220;2022-09-17T13:42:16;4.40;;;0.50;;
65706;SDS011;52423;43.512;5.220;2022-09-17T13:45:00;1.45;;;0.65;;
65706;SDS011;52423;43.512;5.220;2022-09-17T13:48:01;3.30;;;0.50;;
65706;SDS011;52423;43.512;5.220;2022-09-17T13:53:05;2.55;;;0.57;;
65706;SDS011;52423;43.512;5.220;2022-09-17T13:58:09;8.73;;;1.23;;
65706;SDS011;52423;43.512;5.220;2022-09-17T14:01:06;6.40;;;0.57;;
65706;SDS011;52423;43.512;5.220;2022-09-17T14:32:26;4.40;;;0.60;;
65706;SDS011;52423;43.512;5.220;2022-09-17T14:34:56;3.55;;;0.73;;
65706;SDS011;52423;43.512;5.220;2022-09-17T14:37:23;1.42;;;0.70;;
65706;SDS011;52423;43.512;5.220;2022-09-17T14:39:49;13.75;;;0.90;;
65706;SDS011;52423;43.512;5.220;2022-09-17T14:42:19;3.50;;;0.68;;
65706;SDS011;52423;43.512;5.220;2022-09-17T14:44:50;1.70;;;0.60;;
65706;SDS011;52423;43.512;5.220;2022-09-17T14:47:23;12.25;;;0.98;;
65706;SDS011;52423;43.512;5.220;2022-09-17T14:49:48;4.00;;;0.60;;
65706;SDS011;52423;43.512;5.220;2022-09-17T14:52:33;0.68;;;0.50;;
65706;SDS011;52423;43.512;5.220;2022-09-17T14:57:56;1.08;;;0.80;;
65706;SDS011;52423;43.512;5.220;2022-09-17T15:00:33;2.95;;;0.60;;
65706;SDS011;52423;43.512;5.220;2022-09-17T15:03:01;1.77;;;0.93;;
65706;SDS011;52423;43.512;5.220;2022-09-17T15:13:10;10.23;;;0.70;;
65706;SDS011;52423;43.512;5.220;2022-09-17T15:15:39;5.00;;;0.90;;
65706;SDS011;52423;43.512;5.220;2022-09-17T15:18:14;1.25;;;0.68;;
65706;SDS011;52423;43.512;5.220;2022-09-17T15:20:40;8.55;;;0.60;;
65706;SDS011;52423;43.512;5.220;2022-09-17T15:23:09;4.75;;;0.63;;
65706;SDS011;52423;43.512;5.220;2022-09-17T15:25:49;3.80;;;1.07;;
65706;SDS011;52423;43.512;5.220;2022-09-17T15:30:54;5.10;;;0.90;;
65706;SDS011;52423;43.512;5.220;2022-09-17T15:33:19;1.45;;;0.50;;
65706;SDS011;52423;43.512;5.220;2022-09-17T15:38:32;1.92;;;0.85;;
65706;SDS011;52423;43.512;5.220;2022-09-17T15:43:42;5.05;;;0.60;;
65706;SDS011;52423;43.512;5.220;2022-09-17T15:46:19;7.80;;;0.70;;
65706;SDS011;52423;43.512;5.220;2022-09-17T15:48:46;4.03;;;0.55;;
65706;SDS011;52423;43.512;5.220;2022-09-17T15:51:20;0.90;;;0.50;;
65706;SDS011;52423;43.512;5.220;2022-09-17T15:53:55;7.68;;;0.63;;
65706;SDS011;52423;43.512;5.220;2022-09-17T15:56:35;1.60;;;0.38;;
65706;SDS011;52423;43.512;5.220;2022-09-17T15:59:04;1.90;;;0.73;;
65706;SDS011;52423;43.512;5.220;2022-09-17T16:06:54;2.90;;;0.80;;
65706;SDS011;52423;43.512;5.220;2022-09-17T16:09:42;2.40;;;0.68;;
65706;SDS011;52423;43.512;5.220;2022-09-17T16:12:18;6.97;;;0.60;;
65706;SDS011;52423;43.512;5.220;2022-09-17T16:14:46;5.00;;;0.95;;
65706;SDS011;52423;43.512;5.220;2022-09-17T16:17:20;2.65;;;0.38;;
65706;SDS011;52423;43.512;5.220;2022-09-17T16:19:49;0.63;;;0.47;;
65706;SDS011;52423;43.512;5.220;2022-09-17T16:22:15;0.65;;;0.55;;
65706;SDS011;52423;43.512;5.220;2022-09-17T16:24:41;1.00;;;0.50;;
65706;SDS011;52423;43.512;5.220;2022-09-17T16:27:09;1.58;;;0.73;;
65706;SDS011;52423;43.512;5.220;2022-09-17T16:29:40;6.13;;;0.68;;
65706;SDS011;52423;43.512;5.220;2022-09-17T16:32:07;4.40;;;0.95;;
65706;SDS011;52423;43.512;5.220;2022-09-17T16:34:35;7.57;;;0.75;;
65706;SDS011;52423;43.512;5.220;2022-09-17T16:37:00;0.55;;;0.50;;
65706;SDS011;52423;43.512;5.220;2022-09-17T16:39:26;2.15;;;0.45;;
65706;SDS011;52423;43.512;5.220;2022-09-17T16:41:52;1.65;;;0.50;;
65706;SDS011;52423;43.512;5.220;2022-09-17T16:44:17;2.22;;;0.90;;
65706;SDS011;52423;43.512;5.220;2022-09-17T16:46:43;4.70;;;0.90;;
65706;SDS011;52423;43.512;5.220;2022-09-17T16:49:08;4.72;;;0.65;;
65706;SDS011;52423;43.512;5.220;2022-09-17T16:51:34;2.60;;;0.82;;
65706;SDS011;52423;43.512;5.220;2022-09-17T16:53:59;10.85;;;0.70;;
65706;SDS011;52423;43.512;5.220;2022-09-17T16:56:25;7.80;;;2.08;;
65706;SDS011;52423;43.512;5.220;2022-09-17T16:58:54;5.05;;;0.60;;
65706;SDS011;52423;43.512;5.220;2022-09-17T17:01:20;2.80;;;0.80;;
65706;SDS011;52423;43.512;5.220;2022-09-17T17:03:49;1.58;;;0.80;;
65706;SDS011;52423;43.512;5.220;2022-09-17T17:06:19;5.25;;;0.98;;
65706;SDS011;52423;43.512;5.220;2022-09-17T17:08:46;3.22;;;1.10;;
65706;SDS011;52423;43.512;5.220;2022-09-17T17:11:12;2.33;;;0.65;;
65706;SDS011;52423;43.512;5.220;2022-09-17T17:13:38;2.78;;;0.90;;
65706;SDS011;52423;43.512;5.220;2022-09-17T17:16:06;2.10;;;1.00;;
65706;SDS011;52423;43.512;5.220;2022-09-17T17:18:33;4.53;;;1.00;;
65706;SDS011;52423;43.512;5.220;2022-09-17T17:21:09;4.45;;;0.88;;
65706;SDS011;52423;43.512;5.220;2022-09-17T17:23:36;2.80;;;1.08;;
65706;SDS011;52423;43.512;5.220;2022-09-17T17:26:01;3.22;;;0.80;;
65706;SDS011;52423;43.512;5.220;2022-09-17T17:28:31;2.38;;;0.80;;
65706;SDS011;52423;43.512;5.220;2022-09-17T17:30:59;1.23;;;0.70;;
65706;SDS011;52423;43.512;5.220;2022-09-17T17:33:24;1.10;;;0.68;;
65706;SDS011;52423;43.512;5.220;2022-09-17T17:35:50;5.07;;;1.38;;
65706;SDS011;52423;43.512;5.220;2022-09-17T17:38:16;0.70;;;0.55;;
65706;SDS011;52423;43.512;5.220;2022-09-17T17:40:42;1.50;;;0.80;;
65706;SDS011;52423;43.512;5.220;2022-09-17T17:43:09;6.15;;;0.85;;
65706;SDS011;52423;43.512;5.220;2022-09-17T17:45:37;6.95;;;0.73;;
65706;SDS011;52423;43.512;5.220;2022-09-17T17:48:03;0.90;;;0.73;;
65706;SDS011;52423;43.512;5.220;2022-09-17T17:50:28;6.80;;;0.82;;
65706;SDS011;52423;43.512;5.220;2022-09-17T17:52:54;2.55;;;0.73;;
65706;SDS011;52423;43.512;5.220;2022-09-17T17:55:19;2.20;;;0.60;;
65706;SDS011;52423;43.512;5.220;2022-09-17T17:57:45;9.50;;;0.80;;
65706;SDS011;52423;43.512;5.220;2022-09-17T18:00:11;6.07;;;0.60;;
65706;SDS011;52423;43.512;5.220;2022-09-17T18:02:38;0.63;;;0.45;;
65706;SDS011;52423;43.512;5.220;2022-09-17T18:05:04;2.08;;;0.57;;
65706;SDS011;52423;43.512;5.220;2022-09-17T18:07:30;0.63;;;0.60;;
65706;SDS011;52423;43.512;5.220;2022-09-17T18:09:56;1.92;;;0.50;;
65706;SDS011;52423;43.512;5.220;2022-09-17T18:12:21;1.52;;;0.63;;
65706;SDS011;52423;43.512;5.220;2022-09-17T18:14:47;1.45;;;0.70;;
65706;SDS011;52423;43.512;5.220;2022-09-17T18:17:13;3.40;;;0.57;;
65706;SDS011;52423;43.512;5.220;2022-09-17T18:19:38;1.23;;;0.60;;
65706;SDS011;52423;43.512;5.220;2022-09-17T18:22:04;4.10;;;0.70;;
65706;SDS011;52423;43.512;5.220;2022-09-17T18:24:29;1.60;;;0.82;;
65706;SDS011;52423;43.512;5.220;2022-09-17T18:26:55;2.30;;;0.80;;
65706;SDS011;52423;43.512;5.220;2022-09-17T18:29:20;2.17;;;0.50;;
65706;SDS011;52423;43.512;5.220;2022-09-17T18:31:46;3.58;;;0.68;;
65706;SDS011;52423;43.512;5.220;2022-09-17T18:34:13;3.83;;;0.30;;
65706;SDS011;52423;43.512;5.220;2022-09-17T18:36:40;8.77;;;0.50;;
65706;SDS011;52423;43.512;5.220;2022-09-17T18:39:07;1.33;;;0.55;;
65706;SDS011;52423;43.512;5.220;2022-09-17T18:41:36;1.00;;;0.47;;
65706;SDS011;52423;43.512;5.220;2022-09-17T18:44:04;0.93;;;0.70;;
65706;SDS011;52423;43.512;5.220;2022-09-17T18:46:34;1.50;;;0.60;;
65706;SDS011;52423;43.512;5.220;2022-09-17T18:49:00;3.65;;;0.50;;
65706;SDS011;52423;43.512;5.220;2022-09-17T18:51:26;0.68;;;0.63;;
65706;SDS011;52423;43.512;5.220;2022-09-17T18:53:53;0.70;;;0.40;;
65706;SDS011;52423;43.512;5.220;2022-09-17T18:56:20;3.30;;;0.88;;
65706;SDS011;52423;43.512;5.220;2022-09-17T18:58:54;2.20;;;0.52;;
65706;SDS011;52423;43.512;5.220;2022-09-17T19:01:24;1.20;;;0.57;;
65706;SDS011;52423;43.512;5.220;2022-09-17T19:03:54;2.58;;;0.90;;